Time;durP1;ratioP1;P1;durP2;ratioP2;P2;SDS_P1;SDS_P2;PMS_P1;PMS_P2;Temp;Humidity;BMP_temperature;BMP_pressure;BME280_temperature;BME280_humidity;BME280_pressure;Samples;Min_cycle;Max_cycle;Signal;HPM_P1;HPM_P2
2023/12/25 00:01:41;;;;;;;18.25;12.80;;;;;;;;;;5068463;28;20043;-45
2023/12/25 00:04:06;;;;;;;20.65;12.25;;;;;;;;;;5072502;28;20040;-43
2023/12/25 00:06:32;;;;;;;16.85;9.75;;;;;;;;;;5071535;28;20032;-44
2023/12/25 00:08:57;;;;;;;18.33;11.25;;;;;;;;;;5077943;28;20056;-44
2023/12/25 00:11:22;;;;;;;15.10;10.52;;;;;;;;;;5080337;28;20023;-43
2023/12/25 00:13:51;;;;;;;14.70;11.13;;;;;;;;;;5076247;28;20120;-45
2023/12/25 00:16:16;;;;;;;9.10;6.43;;;;;;;;;;5080984;28;20016;-45
2023/12/25 00:18:42;;;;;;;9.18;7.03;;;;;;;;;;5073688;28;20039;-45
2023/12/25 00:21:08;;;;;;;14.57;10.18;;;;;;;;;;5068883;28;20036;-47
2023/12/25 00:23:33;;;;;;;13.88;10.05;;;;;;;;;;5070987;28;20126;-46
2023/12/25 00:25:58;;;;;;;15.35;9.48;;;;;;;;;;5077968;28;20035;-46
2023/12/25 00:28:24;;;;;;;8.45;6.72;;;;;;;;;;5073243;28;20126;-45
2023/12/25 00:30:49;;;;;;;11.50;7.63;;;;;;;;;;5072077;28;20363;-44
2023/12/25 00:33:15;;;;;;;10.68;8.23;;;;;;;;;;5084728;28;20032;-45
2023/12/25 00:35:40;;;;;;;13.98;9.50;;;;;;;;;;5074514;28;20104;-45
2023/12/25 00:38:05;;;;;;;8.80;7.30;;;;;;;;;;5074615;28;20660;-47
2023/12/25 00:40:31;;;;;;;14.98;9.98;;;;;;;;;;5080156;28;20029;-46
2023/12/25 00:42:56;;;;;;;12.82;8.70;;;;;;;;;;5076476;28;20024;-46
2023/12/25 00:45:22;;;;;;;17.80;10.07;;;;;;;;;;5079501;28;20020;-44
2023/12/25 00:47:47;;;;;;;17.67;11.90;;;;;;;;;;5080505;28;20067;-47
2023/12/25 00:50:12;;;;;;;14.50;9.27;;;;;;;;;;5052980;28;20968;-49
2023/12/25 00:52:38;;;;;;;11.35;7.03;;;;;;;;;;5080755;28;20444;-44
2023/12/25 00:55:03;;;;;;;10.20;7.60;;;;;;;;;;5077060;28;20039;-46
2023/12/25 00:57:29;;;;;;;9.82;6.68;;;;;;;;;;5078117;28;20021;-46
2023/12/25 00:59:55;;;;;;;9.18;8.00;;;;;;;;;;5081832;28;20039;-45
2023/12/25 01:02:20;;;;;;;10.15;6.65;;;;;;;;;;5074901;28;20063;-45
2023/12/25 01:04:46;;;;;;;5.93;5.32;;;;;;;;;;5072815;28;20512;-46
2023/12/25 01:07:11;;;;;;;7.18;5.50;;;;;;;;;;5078058;28;20024;-45
2023/12/25 01:09:36;;;;;;;7.70;5.78;;;;;;;;;;5090022;28;20047;-46
2023/12/25 01:12:02;;;;;;;8.98;7.13;;;;;;;;;;5082563;28;20025;-47
2023/12/25 01:14:27;;;;;;;9.65;7.22;;;;;;;;;;5071465;28;20044;-44
2023/12/25 01:16:53;;;;;;;14.48;9.15;;;;;;;;;;5076879;28;20020;-45
2023/12/25 01:19:18;;;;;;;13.25;8.75;;;;;;;;;;5078088;28;20032;-47
2023/12/25 01:21:44;;;;;;;10.73;7.63;;;;;;;;;;5076114;28;20139;-46
2023/12/25 01:24:09;;;;;;;12.07;8.35;;;;;;;;;;5076935;28;20041;-44
2023/12/25 01:26:35;;;;;;;15.15;9.05;;;;;;;;;;5085889;28;20040;-44
2023/12/25 01:29:00;;;;;;;12.25;8.48;;;;;;;;;;5074833;28;20041;-45
2023/12/25 01:31:26;;;;;;;13.25;8.38;;;;;;;;;;5079894;28;20040;-44
2023/12/25 01:33:51;;;;;;;11.75;7.90;;;;;;;;;;5078023;28;20498;-46
2023/12/25 01:36:17;;;;;;;10.80;7.43;;;;;;;;;;5075504;28;20412;-49
2023/12/25 01:38:42;;;;;;;10.40;7.45;;;;;;;;;;5085464;28;20614;-52
2023/12/25 01:41:07;;;;;;;11.93;8.70;;;;;;;;;;5082056;28;20062;-44
2023/12/25 01:43:33;;;;;;;12.20;9.50;;;;;;;;;;5075800;28;20801;-47
2023/12/25 01:45:58;;;;;;;9.07;7.55;;;;;;;;;;5092685;28;20547;-49
2023/12/25 01:48:24;;;;;;;10.00;5.88;;;;;;;;;;5069482;28;20102;-43
2023/12/25 01:50:53;;;;;;;12.75;7.70;;;;;;;;;;5080548;28;20028;-44
2023/12/25 01:53:19;;;;;;;17.65;10.07;;;;;;;;;;5068262;28;20081;-45
2023/12/25 01:55:44;;;;;;;9.35;6.63;;;;;;;;;;5085627;28;20484;-48
2023/12/25 01:58:09;;;;;;;20.45;11.68;;;;;;;;;;5081095;28;20032;-44
2023/12/25 02:00:35;;;;;;;12.35;7.63;;;;;;;;;;5074640;28;20040;-43
2023/12/25 02:03:00;;;;;;;9.88;6.22;;;;;;;;;;5083824;28;20024;-45
2023/12/25 02:05:26;;;;;;;17.67;9.30;;;;;;;;;;5084273;28;20040;-47
2023/12/25 02:07:53;;;;;;;31.92;16.40;;;;;;;;;;5084993;28;20107;-43
2023/12/25 02:10:29;;;;;;;27.77;14.57;;;;;;;;;;5077954;28;20130;-50
2023/12/25 02:12:54;;;;;;;24.35;13.60;;;;;;;;;;5069716;28;20060;-49
2023/12/25 02:15:20;;;;;;;19.15;10.35;;;;;;;;;;5076895;28;20468;-45
2023/12/25 02:17:46;;;;;;;18.60;11.68;;;;;;;;;;5076446;28;20028;-46
2023/12/25 02:20:13;;;;;;;14.80;7.85;;;;;;;;;;5076363;28;20086;-44
2023/12/25 02:22:40;;;;;;;13.90;9.25;;;;;;;;;;5076457;28;20093;-45
2023/12/25 02:25:36;;;;;;;11.35;9.10;;;;;;;;;;5074177;28;20040;-49
2023/12/25 02:28:02;;;;;;;12.43;8.90;;;;;;;;;;5081431;28;20024;-47
2023/12/25 02:30:28;;;;;;;15.10;9.88;;;;;;;;;;5081398;28;20163;-49
2023/12/25 02:32:54;;;;;;;11.90;8.65;;;;;;;;;;5079443;28;20070;-45
2023/12/25 02:35:19;;;;;;;12.05;9.38;;;;;;;;;;5075004;28;20102;-46
2023/12/25 02:37:44;;;;;;;12.57;8.40;;;;;;;;;;5075371;28;20020;-46
2023/12/25 02:40:10;;;;;;;9.00;6.75;;;;;;;;;;5075077;28;20114;-46
2023/12/25 02:42:36;;;;;;;10.18;6.43;;;;;;;;;;5080318;28;20040;-45
2023/12/25 02:45:01;;;;;;;7.80;5.90;;;;;;;;;;5076008;28;20037;-43
2023/12/25 02:47:27;;;;;;;10.10;5.95;;;;;;;;;;5079663;28;20099;-45
2023/12/25 02:49:52;;;;;;;10.77;7.47;;;;;;;;;;5081176;28;20661;-44
2023/12/25 02:52:18;;;;;;;7.85;5.18;;;;;;;;;;5074308;28;20020;-44
2023/12/25 02:54:44;;;;;;;6.47;5.20;;;;;;;;;;5074058;28;20055;-46
2023/12/25 02:57:09;;;;;;;8.05;5.00;;;;;;;;;;5077223;28;20024;-45
2023/12/25 02:59:34;;;;;;;8.20;5.40;;;;;;;;;;5070613;28;20044;-49
2023/12/25 03:02:00;;;;;;;7.63;4.47;;;;;;;;;;5077471;28;20439;-46
2023/12/25 03:04:25;;;;;;;6.13;3.45;;;;;;;;;;5071802;28;20490;-44
2023/12/25 03:06:51;;;;;;;5.20;3.80;;;;;;;;;;5085000;28;20024;-46
2023/12/25 03:09:17;;;;;;;9.18;5.78;;;;;;;;;;5082959;28;20033;-47
2023/12/25 03:11:43;;;;;;;7.47;4.45;;;;;;;;;;5075667;28;20029;-45
2023/12/25 03:14:08;;;;;;;8.43;3.90;;;;;;;;;;5074699;28;20040;-46
2023/12/25 03:16:34;;;;;;;2.95;2.65;;;;;;;;;;5069042;28;20028;-44
2023/12/25 03:18:59;;;;;;;6.03;2.63;;;;;;;;;;5073973;28;20025;-45
2023/12/25 03:21:24;;;;;;;3.47;2.25;;;;;;;;;;5080684;28;20127;-44
2023/12/25 03:23:50;;;;;;;5.93;3.80;;;;;;;;;;5074820;28;20032;-44
2023/12/25 03:26:15;;;;;;;3.30;2.58;;;;;;;;;;5074328;28;20040;-46
2023/12/25 03:28:41;;;;;;;7.57;4.35;;;;;;;;;;5077063;28;20037;-47
2023/12/25 03:31:07;;;;;;;9.88;6.07;;;;;;;;;;5077116;28;20035;-44
2023/12/25 03:33:34;;;;;;;9.60;4.72;;;;;;;;;;5071246;28;20056;-44
2023/12/25 03:36:00;;;;;;;5.90;3.55;;;;;;;;;;5081240;28;20750;-43
2023/12/25 03:38:25;;;;;;;10.38;4.50;;;;;;;;;;5072790;28;20052;-44
2023/12/25 03:40:51;;;;;;;9.77;4.38;;;;;;;;;;5074896;28;20024;-44
2023/12/25 03:43:16;;;;;;;7.97;4.00;;;;;;;;;;5082921;28;20032;-46
2023/12/25 03:45:41;;;;;;;5.68;3.63;;;;;;;;;;5073263;28;20060;-48
2023/12/25 03:48:07;;;;;;;6.95;3.83;;;;;;;;;;5077507;28;20040;-43
2023/12/25 03:50:32;;;;;;;5.10;2.75;;;;;;;;;;5075937;28;20032;-46
2023/12/25 03:52:58;;;;;;;4.10;2.55;;;;;;;;;;5074915;28;20051;-42
2023/12/25 03:55:23;;;;;;;3.78;2.42;;;;;;;;;;5074183;28;20029;-45
2023/12/25 03:57:48;;;;;;;5.22;3.40;;;;;;;;;;5073156;28;20016;-48
2023/12/25 04:00:14;;;;;;;4.20;2.95;;;;;;;;;;5088371;28;20041;-45
2023/12/25 04:02:40;;;;;;;4.15;2.20;;;;;;;;;;5078893;28;20029;-44
2023/12/25 04:05:06;;;;;;;6.63;4.22;;;;;;;;;;5070555;28;20036;-43
2023/12/25 04:07:31;;;;;;;5.90;2.72;;;;;;;;;;5075933;28;20025;-47
2023/12/25 04:09:58;;;;;;;5.15;3.95;;;;;;;;;;5073883;28;20038;-44
2023/12/25 04:12:23;;;;;;;4.22;3.10;;;;;;;;;;5069508;28;20048;-44
2023/12/25 04:14:49;;;;;;;7.32;4.13;;;;;;;;;;5078188;28;20033;-46
2023/12/25 04:17:14;;;;;;;8.32;6.00;;;;;;;;;;5077971;28;20032;-46
2023/12/25 04:19:40;;;;;;;9.82;6.72;;;;;;;;;;5072070;28;20025;-43
2023/12/25 04:22:06;;;;;;;8.55;4.60;;;;;;;;;;5073438;28;20027;-45
2023/12/25 04:24:31;;;;;;;6.90;4.28;;;;;;;;;;5073133;28;20032;-46
2023/12/25 04:26:57;;;;;;;8.43;5.03;;;;;;;;;;5072892;28;20486;-46
2023/12/25 04:29:22;;;;;;;7.57;5.63;;;;;;;;;;5075526;28;20086;-45
2023/12/25 04:31:48;;;;;;;5.57;4.57;;;;;;;;;;5075737;28;20495;-45
2023/12/25 04:34:14;;;;;;;6.43;4.40;;;;;;;;;;5078716;28;20049;-46
2023/12/25 04:36:39;;;;;;;6.25;4.30;;;;;;;;;;5071157;28;20029;-47
2023/12/25 04:39:05;;;;;;;6.78;4.93;;;;;;;;;;5080727;28;20036;-45
2023/12/25 04:41:30;;;;;;;6.13;4.55;;;;;;;;;;5078525;28;20047;-49
2023/12/25 04:43:56;;;;;;;8.25;4.75;;;;;;;;;;5081205;28;20086;-45
2023/12/25 04:46:21;;;;;;;8.93;5.30;;;;;;;;;;5072320;28;20659;-44
2023/12/25 04:48:47;;;;;;;9.85;6.60;;;;;;;;;;5076973;28;20037;-44
2023/12/25 04:51:12;;;;;;;9.57;5.80;;;;;;;;;;5080264;28;20036;-46
2023/12/25 04:53:38;;;;;;;8.65;6.32;;;;;;;;;;5076184;28;20040;-45
2023/12/25 04:56:03;;;;;;;6.20;4.85;;;;;;;;;;5077291;28;20038;-48
2023/12/25 04:58:29;;;;;;;7.38;3.83;;;;;;;;;;5080830;28;20169;-45
2023/12/25 05:00:55;;;;;;;8.52;5.28;;;;;;;;;;5082749;28;20024;-44
2023/12/25 05:03:23;;;;;;;6.03;4.20;;;;;;;;;;5079360;28;20402;-45
2023/12/25 05:05:49;;;;;;;5.38;3.15;;;;;;;;;;5080820;28;20028;-44
2023/12/25 05:08:15;;;;;;;6.55;3.70;;;;;;;;;;5071178;28;21066;-46
2023/12/25 05:10:41;;;;;;;7.53;4.32;;;;;;;;;;5082842;28;20028;-47
2023/12/25 05:13:06;;;;;;;9.73;4.95;;;;;;;;;;5078025;28;20037;-47
2023/12/25 05:15:32;;;;;;;5.50;4.40;;;;;;;;;;5082039;28;20070;-44
2023/12/25 05:17:57;;;;;;;6.72;4.38;;;;;;;;;;5077008;28;20017;-43
2023/12/25 05:20:23;;;;;;;5.97;4.38;;;;;;;;;;5079336;28;20051;-44
2023/12/25 05:22:48;;;;;;;6.35;3.97;;;;;;;;;;5084308;28;20401;-44
2023/12/25 05:25:13;;;;;;;5.13;3.92;;;;;;;;;;5079361;28;20047;-44
2023/12/25 05:27:39;;;;;;;8.15;5.10;;;;;;;;;;5079245;28;20025;-46
2023/12/25 05:30:05;;;;;;;5.68;3.80;;;;;;;;;;5080986;28;20025;-44
2023/12/25 05:32:30;;;;;;;7.32;4.32;;;;;;;;;;5077292;28;20546;-46
2023/12/25 05:34:56;;;;;;;4.75;3.60;;;;;;;;;;5081354;28;20070;-47
2023/12/25 05:37:21;;;;;;;5.50;4.30;;;;;;;;;;5078161;28;20027;-50
2023/12/25 05:39:47;;;;;;;5.88;3.92;;;;;;;;;;5079662;28;20131;-45
2023/12/25 05:42:12;;;;;;;6.45;4.05;;;;;;;;;;5080663;28;20546;-44
2023/12/25 05:44:38;;;;;;;6.40;4.22;;;;;;;;;;5071205;28;20490;-45
2023/12/25 05:47:03;;;;;;;8.40;4.82;;;;;;;;;;5075622;28;20452;-46
2023/12/25 05:49:29;;;;;;;4.97;4.13;;;;;;;;;;5082142;28;20028;-45
2023/12/25 05:51:54;;;;;;;6.40;3.78;;;;;;;;;;5081814;28;20032;-45
2023/12/25 05:54:20;;;;;;;5.38;3.92;;;;;;;;;;5092241;28;20391;-44
2023/12/25 05:56:45;;;;;;;5.13;3.60;;;;;;;;;;5084207;28;21708;-47
2023/12/25 05:59:11;;;;;;;5.45;3.83;;;;;;;;;;5074133;28;20040;-44
2023/12/25 06:01:36;;;;;;;5.25;3.80;;;;;;;;;;5081155;28;20103;-44
2023/12/25 06:04:01;;;;;;;7.05;4.50;;;;;;;;;;5075461;28;20432;-44
2023/12/25 06:06:27;;;;;;;4.65;3.65;;;;;;;;;;5080552;28;20048;-45
2023/12/25 06:08:53;;;;;;;5.18;3.92;;;;;;;;;;5088944;28;20043;-47
2023/12/25 06:11:18;;;;;;;7.90;5.40;;;;;;;;;;5079118;28;20029;-44
2023/12/25 06:13:44;;;;;;;6.28;4.60;;;;;;;;;;5071649;28;20087;-45
2023/12/25 06:16:09;;;;;;;7.68;4.78;;;;;;;;;;5080037;28;20039;-43
2023/12/25 06:18:34;;;;;;;9.10;5.60;;;;;;;;;;5080474;28;20107;-44
2023/12/25 06:21:00;;;;;;;9.77;6.07;;;;;;;;;;5079215;28;20070;-44
2023/12/25 06:23:25;;;;;;;7.60;5.53;;;;;;;;;;5076380;28;20040;-48
2023/12/25 06:25:50;;;;;;;7.70;6.30;;;;;;;;;;5074795;28;20024;-44
2023/12/25 06:28:16;;;;;;;5.57;4.55;;;;;;;;;;5075153;28;20133;-47
2023/12/25 06:30:41;;;;;;;5.20;4.25;;;;;;;;;;5078597;28;20024;-45
2023/12/25 06:33:07;;;;;;;7.78;4.97;;;;;;;;;;5074449;28;20559;-45
2023/12/25 06:35:32;;;;;;;7.10;5.32;;;;;;;;;;5082607;28;20028;-47
2023/12/25 06:37:57;;;;;;;7.28;5.22;;;;;;;;;;5074657;28;20027;-46
2023/12/25 06:40:23;;;;;;;6.38;5.18;;;;;;;;;;5076805;28;20036;-44
2023/12/25 06:42:48;;;;;;;9.15;5.40;;;;;;;;;;5081424;28;20016;-45
2023/12/25 06:45:14;;;;;;;5.82;4.97;;;;;;;;;;5080166;28;20032;-44
2023/12/25 06:47:39;;;;;;;4.70;4.13;;;;;;;;;;5073298;28;20031;-44
2023/12/25 06:50:05;;;;;;;6.75;4.63;;;;;;;;;;5069233;28;20037;-48
2023/12/25 06:52:30;;;;;;;5.30;4.13;;;;;;;;;;5078940;28;20049;-45
2023/12/25 06:54:55;;;;;;;7.32;4.35;;;;;;;;;;5085969;28;20082;-46
2023/12/25 06:57:21;;;;;;;7.10;5.25;;;;;;;;;;5076532;28;20025;-46
2023/12/25 06:59:46;;;;;;;7.60;4.90;;;;;;;;;;5079786;28;20482;-47
2023/12/25 07:02:12;;;;;;;5.47;4.72;;;;;;;;;;5086905;28;20031;-45
2023/12/25 07:04:38;;;;;;;5.05;4.38;;;;;;;;;;5076477;28;20028;-44
2023/12/25 07:07:03;;;;;;;4.80;3.97;;;;;;;;;;5080344;28;20024;-45
2023/12/25 07:09:29;;;;;;;4.10;3.30;;;;;;;;;;5074651;28;20064;-44
2023/12/25 07:11:55;;;;;;;7.65;5.43;;;;;;;;;;5074078;28;20024;-51
2023/12/25 07:14:21;;;;;;;7.28;4.90;;;;;;;;;;5073530;28;20078;-44
2023/12/25 07:16:47;;;;;;;6.75;4.63;;;;;;;;;;5076687;28;20065;-44
2023/12/25 07:19:12;;;;;;;10.50;6.15;;;;;;;;;;5074063;28;20131;-44
2023/12/25 07:21:38;;;;;;;6.53;3.75;;;;;;;;;;5077343;28;20033;-46
2023/12/25 07:24:05;;;;;;;8.10;5.93;;;;;;;;;;5075192;28;20037;-43
2023/12/25 07:26:30;;;;;;;6.97;5.05;;;;;;;;;;5075430;28;20043;-45
2023/12/25 07:28:55;;;;;;;9.68;5.10;;;;;;;;;;5076594;28;20682;-45
2023/12/25 07:31:21;;;;;;;7.72;5.22;;;;;;;;;;5075008;28;20102;-44
2023/12/25 07:33:47;;;;;;;11.50;6.20;;;;;;;;;;5073543;28;20041;-43
2023/12/25 07:36:12;;;;;;;4.05;3.20;;;;;;;;;;5076618;28;20454;-46
2023/12/25 07:38:38;;;;;;;7.68;3.38;;;;;;;;;;5070855;28;20033;-48
2023/12/25 07:41:08;;;;;;;6.15;3.92;;;;;;;;;;5075469;28;20081;-46
2023/12/25 07:43:33;;;;;;;7.20;6.40;;;;;;;;;;5071642;28;20071;-44
2023/12/25 07:45:59;;;;;;;6.95;4.60;;;;;;;;;;5077808;28;20020;-47
2023/12/25 07:48:24;;;;;;;5.00;4.53;;;;;;;;;;5078578;28;20071;-50
2023/12/25 07:50:51;;;;;;;9.98;5.78;;;;;;;;;;5078647;28;20024;-44
2023/12/25 07:53:17;;;;;;;8.88;5.60;;;;;;;;;;5069595;28;20041;-46
2023/12/25 07:55:42;;;;;;;9.00;4.00;;;;;;;;;;5073424;28;20033;-47
2023/12/25 07:58:10;;;;;;;7.32;4.30;;;;;;;;;;5080432;28;20412;-47
2023/12/25 08:00:36;;;;;;;6.45;5.38;;;;;;;;;;5073822;28;20044;-45
2023/12/25 08:03:01;;;;;;;5.38;3.80;;;;;;;;;;5072862;28;20047;-44
2023/12/25 08:05:26;;;;;;;5.75;4.85;;;;;;;;;;5081667;28;20031;-45
2023/12/25 08:07:52;;;;;;;6.80;5.10;;;;;;;;;;5086395;28;20056;-46
2023/12/25 08:10:17;;;;;;;4.60;4.10;;;;;;;;;;5083571;28;20061;-47
2023/12/25 08:12:43;;;;;;;7.78;5.10;;;;;;;;;;5075440;28;20035;-44
2023/12/25 08:15:12;;;;;;;6.25;4.53;;;;;;;;;;5074326;28;20110;-44
2023/12/25 08:17:37;;;;;;;6.28;4.75;;;;;;;;;;5070910;28;20470;-44
2023/12/25 08:20:05;;;;;;;6.38;4.68;;;;;;;;;;5074819;28;20037;-44
2023/12/25 08:22:30;;;;;;;6.80;5.43;;;;;;;;;;5070932;28;20028;-50
2023/12/25 08:24:56;;;;;;;7.00;4.95;;;;;;;;;;5079945;28;20040;-44
2023/12/25 08:27:21;;;;;;;5.07;4.40;;;;;;;;;;5076712;28;20035;-45
2023/12/25 08:29:47;;;;;;;6.80;4.35;;;;;;;;;;5082632;28;20037;-44
2023/12/25 08:32:13;;;;;;;5.22;3.72;;;;;;;;;;5078650;28;20035;-44
2023/12/25 08:34:40;;;;;;;7.15;4.95;;;;;;;;;;5082271;28;20067;-47
2023/12/25 08:37:05;;;;;;;4.63;4.00;;;;;;;;;;5088142;28;20024;-44
2023/12/25 08:39:31;;;;;;;5.05;3.85;;;;;;;;;;5079039;28;20043;-45
2023/12/25 08:42:00;;;;;;;5.90;3.90;;;;;;;;;;5074439;28;20115;-47
2023/12/25 08:44:26;;;;;;;5.28;4.20;;;;;;;;;;5077149;28;20041;-46
2023/12/25 08:46:51;;;;;;;5.93;4.60;;;;;;;;;;5078450;28;20082;-46
2023/12/25 08:49:17;;;;;;;4.97;4.20;;;;;;;;;;5076255;28;20040;-45
2023/12/25 08:51:42;;;;;;;5.72;3.75;;;;;;;;;;5074127;28;20106;-46
2023/12/25 08:54:07;;;;;;;5.50;4.13;;;;;;;;;;5073926;28;20040;-43
2023/12/25 08:56:33;;;;;;;3.60;3.28;;;;;;;;;;5068313;28;20334;-45
2023/12/25 08:59:00;;;;;;;5.40;4.45;;;;;;;;;;5071387;28;20060;-45
2023/12/25 09:01:26;;;;;;;7.03;5.30;;;;;;;;;;5076214;28;20031;-47
2023/12/25 09:03:52;;;;;;;9.15;7.38;;;;;;;;;;5074406;28;20044;-46
2023/12/25 09:06:18;;;;;;;8.32;7.53;;;;;;;;;;5069912;28;20031;-46
2023/12/25 09:08:45;;;;;;;8.43;6.85;;;;;;;;;;5068694;28;20033;-45
2023/12/25 09:11:11;;;;;;;7.07;5.68;;;;;;;;;;5069750;28;20031;-44
2023/12/25 09:13:36;;;;;;;7.20;4.57;;;;;;;;;;5064375;28;20052;-44
2023/12/25 09:16:02;;;;;;;5.95;4.75;;;;;;;;;;5073678;28;20099;-49
2023/12/25 09:18:28;;;;;;;6.35;4.75;;;;;;;;;;5073946;28;20033;-48
2023/12/25 09:20:54;;;;;;;5.38;4.10;;;;;;;;;;5065263;28;20470;-46
2023/12/25 09:23:19;;;;;;;6.10;4.80;;;;;;;;;;5069769;28;20106;-45
2023/12/25 09:25:45;;;;;;;5.80;4.30;;;;;;;;;;5075957;28;20024;-44
2023/12/25 09:28:11;;;;;;;4.70;3.78;;;;;;;;;;5067564;28;20469;-48
2023/12/25 09:30:38;;;;;;;6.90;4.03;;;;;;;;;;5065923;28;20036;-47
2023/12/25 09:33:03;;;;;;;5.05;4.03;;;;;;;;;;5066660;28;20103;-47
2023/12/25 09:35:29;;;;;;;4.63;4.05;;;;;;;;;;5068339;28;20088;-45
2023/12/25 09:37:54;;;;;;;6.18;4.03;;;;;;;;;;5065505;28;20036;-47
2023/12/25 09:40:19;;;;;;;4.10;3.53;;;;;;;;;;5067144;28;20592;-47
2023/12/25 09:42:45;;;;;;;4.97;4.10;;;;;;;;;;5069259;28;20040;-45
2023/12/25 09:45:13;;;;;;;3.55;2.55;;;;;;;;;;5066125;28;20043;-50
2023/12/25 09:47:38;;;;;;;5.57;3.50;;;;;;;;;;5064421;28;20025;-48
2023/12/25 09:50:04;;;;;;;4.22;2.95;;;;;;;;;;5063098;28;20037;-47
2023/12/25 09:52:30;;;;;;;5.95;3.10;;;;;;;;;;5080664;28;21710;-44
2023/12/25 09:54:55;;;;;;;6.57;3.95;;;;;;;;;;5067823;28;20124;-45
2023/12/25 09:57:22;;;;;;;3.97;3.30;;;;;;;;;;5060171;28;20167;-45
2023/12/25 09:59:52;;;;;;;5.03;3.83;;;;;;;;;;5067927;28;20079;-47
2023/12/25 10:02:21;;;;;;;5.93;3.70;;;;;;;;;;5083185;28;20397;-47
2023/12/25 10:04:47;;;;;;;;;;;;;;;;;;5069273;28;20040;-46
2023/12/25 10:07:13;;;;;;;5.70;4.32;;;;;;;;;;5063899;28;20282;-44
2023/12/25 10:09:38;;;;;;;5.90;4.15;;;;;;;;;;5067876;28;20046;-48
2023/12/25 10:12:05;;;;;;;4.65;3.47;;;;;;;;;;5065191;28;20048;-47
2023/12/25 10:14:31;;;;;;;5.47;4.25;;;;;;;;;;5063382;28;20529;-44
2023/12/25 10:16:58;;;;;;;5.13;3.63;;;;;;;;;;5073204;28;20115;-45
2023/12/25 10:19:24;;;;;;;5.47;4.30;;;;;;;;;;5069410;28;20482;-44
2023/12/25 10:21:52;;;;;;;4.47;3.38;;;;;;;;;;5069067;28;20073;-44
2023/12/25 10:24:17;;;;;;;5.30;3.70;;;;;;;;;;5071077;28;20529;-45
2023/12/25 10:26:46;;;;;;;4.68;3.72;;;;;;;;;;5069100;28;20694;-45
2023/12/25 10:29:12;;;;;;;3.97;2.90;;;;;;;;;;5071776;28;20044;-44
2023/12/25 10:31:43;;;;;;;4.95;3.05;;;;;;;;;;5071066;28;20030;-48
2023/12/25 10:34:09;;;;;;;4.55;2.72;;;;;;;;;;5065934;28;20536;-45
2023/12/25 10:36:35;;;;;;;3.40;2.97;;;;;;;;;;5074113;28;20021;-44
2023/12/25 10:39:00;;;;;;;4.47;2.83;;;;;;;;;;5066094;28;20040;-45
2023/12/25 10:41:28;;;;;;;4.05;3.35;;;;;;;;;;5065374;28;20563;-49
2023/12/25 10:43:59;;;;;;;4.20;3.28;;;;;;;;;;5076223;28;20055;-48
2023/12/25 10:46:30;;;;;;;4.15;2.97;;;;;;;;;;5082886;28;20016;-46
2023/12/25 10:48:56;;;;;;;4.72;3.97;;;;;;;;;;5074536;28;20032;-47
2023/12/25 10:51:41;;;;;;;5.03;3.25;;;;;;;;;;5075341;28;20390;-45
2023/12/25 10:54:09;;;;;;;4.18;3.28;;;;;;;;;;5067435;28;20510;-46
2023/12/25 10:56:37;;;;;;;4.25;3.20;;;;;;;;;;5078194;28;20419;-48
2023/12/25 10:59:25;;;;;;;4.03;3.58;;;;;;;;;;5065841;28;20167;-45
2023/12/25 11:01:52;;;;;;;3.15;2.85;;;;;;;;;;5065021;28;20093;-46
2023/12/25 11:04:19;;;;;;;5.53;3.33;;;;;;;;;;5071719;28;20067;-45
2023/12/25 11:06:46;;;;;;;5.80;3.72;;;;;;;;;;5053520;28;20170;-46
2023/12/25 11:09:20;;;;;;;3.78;2.67;;;;;;;;;;5062188;28;20102;-44
2023/12/25 11:11:45;;;;;;;4.38;3.33;;;;;;;;;;5068662;28;20032;-47
2023/12/25 11:14:11;;;;;;;3.70;2.72;;;;;;;;;;5070007;28;20588;-46
2023/12/25 11:16:37;;;;;;;4.45;2.75;;;;;;;;;;5071388;28;20066;-44
2023/12/25 11:19:04;;;;;;;3.35;2.83;;;;;;;;;;5068020;28;20115;-46
2023/12/25 11:21:32;;;;;;;4.40;2.88;;;;;;;;;;5073941;28;20020;-44
2023/12/25 11:24:00;;;;;;;4.53;2.20;;;;;;;;;;5061324;28;20036;-45
2023/12/25 11:26:29;;;;;;;3.03;2.05;;;;;;;;;;5081244;28;20442;-45
2023/12/25 11:29:07;;;;;;;4.53;3.47;;;;;;;;;;5063082;28;20044;-45
2023/12/25 11:31:44;;;;;;;3.72;2.58;;;;;;;;;;5080218;28;20025;-48
2023/12/25 11:34:17;;;;;;;3.53;2.67;;;;;;;;;;5065479;28;20170;-44
2023/12/25 11:36:44;;;;;;;2.85;1.95;;;;;;;;;;5070385;28;20166;-46
2023/12/25 11:39:09;;;;;;;3.20;2.53;;;;;;;;;;5057127;28;20048;-48
2023/12/25 11:41:37;;;;;;;4.00;2.25;;;;;;;;;;5067191;28;20037;-48
2023/12/25 11:44:09;;;;;;;2.97;1.83;;;;;;;;;;5080690;28;20044;-49
2023/12/25 11:46:35;;;;;;;2.95;2.63;;;;;;;;;;5062437;28;20082;-44
2023/12/25 11:49:01;;;;;;;3.53;2.65;;;;;;;;;;5060805;28;20110;-45
2023/12/25 11:51:29;;;;;;;3.45;3.13;;;;;;;;;;5079849;28;20072;-45
2023/12/25 11:54:01;;;;;;;4.38;2.47;;;;;;;;;;5058383;28;20090;-45
2023/12/25 11:56:31;;;;;;;3.95;2.50;;;;;;;;;;5070707;28;20032;-44
2023/12/25 11:58:56;;;;;;;4.57;2.80;;;;;;;;;;5078638;28;20425;-44
2023/12/25 12:01:22;;;;;;;5.40;4.88;;;;;;;;;;5072963;28;20028;-44
2023/12/25 12:03:50;;;;;;;5.10;3.05;;;;;;;;;;5079359;28;20029;-44
2023/12/25 12:06:18;;;;;;;5.28;3.00;;;;;;;;;;5083706;28;20021;-44
2023/12/25 12:08:44;;;;;;;4.07;2.90;;;;;;;;;;5077770;28;20048;-44
2023/12/25 12:11:11;;;;;;;3.17;2.72;;;;;;;;;;5067435;28;20056;-45
2023/12/25 12:13:37;;;;;;;3.85;3.05;;;;;;;;;;5069767;28;20116;-45
2023/12/25 12:16:03;;;;;;;4.38;2.42;;;;;;;;;;5075502;28;20059;-45
2023/12/25 12:18:29;;;;;;;4.72;2.58;;;;;;;;;;5069490;28;20101;-43
2023/12/25 12:20:55;;;;;;;4.32;2.53;;;;;;;;;;5066646;28;20041;-44
2023/12/25 12:23:21;;;;;;;4.95;3.28;;;;;;;;;;5064586;28;20037;-45
2023/12/25 12:25:46;;;;;;;2.97;1.90;;;;;;;;;;5069838;28;20031;-44
2023/12/25 12:28:14;;;;;;;2.50;1.90;;;;;;;;;;5068263;28;20434;-46
2023/12/25 12:30:40;;;;;;;4.07;2.08;;;;;;;;;;5069421;28;20025;-46
2023/12/25 12:33:08;;;;;;;3.03;2.50;;;;;;;;;;5071952;28;20028;-45
2023/12/25 12:35:34;;;;;;;4.43;3.38;;;;;;;;;;5070555;28;20039;-45
2023/12/25 12:38:00;;;;;;;3.13;2.08;;;;;;;;;;5069763;28;20424;-48
2023/12/25 12:40:27;;;;;;;3.28;1.83;;;;;;;;;;5064543;28;20028;-45
2023/12/25 12:42:53;;;;;;;2.78;1.77;;;;;;;;;;5068853;28;20096;-46
2023/12/25 12:45:18;;;;;;;3.08;1.83;;;;;;;;;;5073184;28;20048;-49
2023/12/25 12:47:45;;;;;;;2.50;2.03;;;;;;;;;;5069913;28;20663;-46
2023/12/25 12:50:12;;;;;;;2.25;1.63;;;;;;;;;;5081283;28;20127;-46
2023/12/25 12:52:38;;;;;;;2.45;1.73;;;;;;;;;;5079257;28;20135;-44
2023/12/25 12:55:04;;;;;;;2.55;1.92;;;;;;;;;;5067724;28;20147;-48
2023/12/25 12:57:29;;;;;;;3.00;2.30;;;;;;;;;;5064459;28;20075;-44
2023/12/25 12:59:55;;;;;;;3.33;2.30;;;;;;;;;;5062650;28;20040;-44
2023/12/25 13:02:20;;;;;;;2.53;1.73;;;;;;;;;;5065368;28;20052;-47
2023/12/25 13:04:46;;;;;;;3.28;2.53;;;;;;;;;;5069653;28;20052;-47
2023/12/25 13:07:11;;;;;;;3.72;1.88;;;;;;;;;;5067638;28;20111;-47
2023/12/25 13:09:37;;;;;;;2.83;1.85;;;;;;;;;;5064938;28;20094;-47
2023/12/25 13:12:03;;;;;;;2.55;1.58;;;;;;;;;;5071733;28;20061;-46
2023/12/25 13:14:29;;;;;;;2.85;1.70;;;;;;;;;;5068748;28;20090;-45
2023/12/25 13:16:54;;;;;;;4.05;2.70;;;;;;;;;;5072095;28;20032;-48
2023/12/25 13:19:20;;;;;;;2.65;2.17;;;;;;;;;;5068673;28;20037;-47
2023/12/25 13:21:45;;;;;;;2.97;1.95;;;;;;;;;;5068648;28;20461;-48
2023/12/25 13:24:11;;;;;;;1.85;1.27;;;;;;;;;;5071299;28;20051;-45
2023/12/25 13:26:37;;;;;;;3.50;1.92;;;;;;;;;;5069664;28;20649;-48
2023/12/25 13:29:03;;;;;;;2.17;1.58;;;;;;;;;;5069377;28;20037;-47
2023/12/25 13:31:29;;;;;;;2.08;1.83;;;;;;;;;;5070201;28;20028;-50
2023/12/25 13:33:54;;;;;;;4.20;2.08;;;;;;;;;;5071430;28;20032;-46
2023/12/25 13:36:20;;;;;;;3.25;1.85;;;;;;;;;;5064836;28;20023;-48
2023/12/25 13:38:45;;;;;;;3.10;2.10;;;;;;;;;;5066830;28;20086;-52
2023/12/25 13:41:11;;;;;;;2.53;1.73;;;;;;;;;;5068024;28;20033;-48
2023/12/25 13:43:36;;;;;;;4.47;3.10;;;;;;;;;;5066477;28;20064;-45
2023/12/25 13:46:02;;;;;;;3.50;1.88;;;;;;;;;;5067279;28;20033;-45
2023/12/25 13:48:28;;;;;;;3.47;1.90;;;;;;;;;;5073660;28;20502;-49
2023/12/25 13:50:54;;;;;;;5.25;2.47;;;;;;;;;;5068817;28;20032;-45
2023/12/25 13:53:21;;;;;;;2.58;1.73;;;;;;;;;;5071266;28;20139;-46
2023/12/25 13:55:47;;;;;;;2.88;1.92;;;;;;;;;;5072595;28;20024;-48
2023/12/25 13:58:13;;;;;;;3.03;2.03;;;;;;;;;;5072119;28;20042;-49
2023/12/25 14:00:38;;;;;;;3.35;1.88;;;;;;;;;;5067273;28;20071;-46
2023/12/25 14:03:04;;;;;;;2.80;2.00;;;;;;;;;;5069182;28;20620;-48
2023/12/25 14:05:30;;;;;;;4.32;2.10;;;;;;;;;;5065794;28;20028;-48
2023/12/25 14:07:55;;;;;;;4.13;1.90;;;;;;;;;;5068934;28;20093;-47
2023/12/25 14:10:21;;;;;;;2.53;1.75;;;;;;;;;;5072399;28;20427;-47
2023/12/25 14:12:46;;;;;;;2.95;1.85;;;;;;;;;;5069550;28;20029;-49
2023/12/25 14:15:11;;;;;;;2.97;2.30;;;;;;;;;;5053632;28;20042;-48
2023/12/25 14:17:37;;;;;;;3.25;1.70;;;;;;;;;;5073451;28;20497;-48
2023/12/25 14:20:03;;;;;;;4.28;1.33;;;;;;;;;;5074250;28;20032;-45
2023/12/25 14:22:29;;;;;;;2.55;1.58;;;;;;;;;;5072522;28;20027;-46
2023/12/25 14:24:54;;;;;;;3.25;1.60;;;;;;;;;;5067579;28;20029;-47
2023/12/25 14:27:19;;;;;;;3.03;1.70;;;;;;;;;;5069964;28;20065;-45
2023/12/25 14:29:45;;;;;;;3.35;2.03;;;;;;;;;;5070711;28;20199;-46
2023/12/25 14:32:10;;;;;;;3.38;2.50;;;;;;;;;;5070964;28;20055;-44
2023/12/25 14:34:36;;;;;;;3.88;2.70;;;;;;;;;;5071319;28;20040;-43